createdAt,value
2022-08-22T00:00:10.301Z,0.00
2022-08-22T00:01:11.274Z,0.00
2022-08-22T00:02:10.328Z,0.00
2022-08-22T00:02:44.477Z,0.00
2022-08-22T00:02:56.359Z,0.00
2022-08-22T00:02:59.525Z,0.00
2022-08-22T00:03:02.492Z,0.00
2022-08-22T00:03:02.937Z,0.00
2022-08-22T00:04:11.245Z,0.00
2022-08-22T00:05:10.257Z,0.00
2022-08-22T00:06:10.224Z,0.00
2022-08-22T00:07:10.212Z,0.00
2022-08-22T00:08:10.206Z,0.00
2022-08-22T00:09:10.211Z,0.00
2022-08-22T00:10:10.183Z,0.00
2022-08-22T00:11:10.175Z,0.00
2022-08-22T00:12:10.163Z,0.00
2022-08-22T00:13:10.164Z,0.00
2022-08-22T00:14:10.163Z,0.00
2022-08-22T00:15:31.531Z,0.00
2022-08-22T00:16:11.118Z,0.00
2022-08-22T00:17:10.110Z,0.00
2022-08-22T00:18:10.110Z,0.00
2022-08-22T00:19:10.111Z,0.00
2022-08-22T00:20:10.081Z,0.00
2022-08-22T00:21:10.070Z,0.00
2022-08-22T00:22:10.062Z,0.00
2022-08-22T00:23:10.043Z,0.00
2022-08-22T00:24:10.057Z,0.00
2022-08-22T00:25:24.847Z,0.00
2022-08-22T00:26:11.015Z,0.00
2022-08-22T00:27:10.012Z,0.00
2022-08-22T00:28:09.996Z,0.00
2022-08-22T00:29:10.016Z,0.00
2022-08-22T00:30:09.975Z,0.00
2022-08-22T00:31:09.967Z,0.00
2022-08-22T00:32:10.360Z,0.00
2022-08-22T00:33:09.939Z,0.00
2022-08-22T00:34:09.941Z,0.00
2022-08-22T00:35:09.920Z,0.00
2022-08-22T00:36:09.911Z,0.00
2022-08-22T00:37:09.902Z,0.00
2022-08-22T00:38:09.891Z,0.00
2022-08-22T00:39:09.895Z,0.00
2022-08-22T00:40:09.936Z,0.00
2022-08-22T00:41:09.874Z,0.00
2022-08-22T00:42:09.917Z,0.00
2022-08-22T00:43:09.843Z,0.00
2022-08-22T00:44:09.856Z,0.00
2022-08-22T00:45:09.823Z,0.00
2022-08-22T00:46:09.808Z,0.00
2022-08-22T00:47:09.794Z,0.00
2022-08-22T00:48:09.785Z,0.00
2022-08-22T00:49:09.788Z,0.00
2022-08-22T00:50:09.766Z,0.00
2022-08-22T00:51:09.754Z,0.00
2022-08-22T00:52:09.744Z,0.00
2022-08-22T00:53:09.734Z,0.00
2022-08-22T00:54:17.508Z,0.00
2022-08-22T00:55:10.709Z,0.00
2022-08-22T00:56:09.709Z,0.00
2022-08-22T00:57:09.689Z,0.00
2022-08-22T00:58:09.696Z,0.00
2022-08-22T00:59:23.925Z,0.00
2022-08-22T01:00:10.664Z,0.00
2022-08-22T01:01:09.694Z,0.00
2022-08-22T01:02:09.640Z,0.00
2022-08-22T01:03:09.627Z,0.00
2022-08-22T01:04:09.635Z,0.00
2022-08-22T01:05:09.602Z,0.00
2022-08-22T01:06:09.595Z,0.00
2022-08-22T01:07:09.590Z,0.00
2022-08-22T01:08:09.583Z,0.00
2022-08-22T01:09:09.589Z,0.00
2022-08-22T01:10:09.566Z,0.00
2022-08-22T01:11:09.544Z,0.00
2022-08-22T01:12:09.529Z,0.00
2022-08-22T01:13:09.518Z,0.00
2022-08-22T01:14:09.524Z,0.00
2022-08-22T01:15:09.496Z,0.00
2022-08-22T01:16:09.493Z,0.00
2022-08-22T01:17:09.499Z,0.00
2022-08-22T01:18:09.466Z,0.00
2022-08-22T01:19:09.467Z,0.00
2022-08-22T01:20:09.449Z,0.00
2022-08-22T01:21:09.449Z,0.00
2022-08-22T01:22:09.427Z,0.00
2022-08-22T01:23:09.412Z,0.00
2022-08-22T01:24:09.418Z,0.00
2022-08-22T01:25:09.388Z,0.00
2022-08-22T01:26:10.722Z,0.00
2022-08-22T01:27:09.368Z,0.00
2022-08-22T01:28:09.358Z,0.00
2022-08-22T01:29:10.387Z,0.00
2022-08-22T01:30:09.351Z,0.00
2022-08-22T01:31:09.325Z,0.00
2022-08-22T01:32:09.315Z,0.00
2022-08-22T01:33:09.304Z,0.00
2022-08-22T01:34:11.295Z,0.00
2022-08-22T01:35:09.352Z,0.00
2022-08-22T01:36:09.274Z,0.00
2022-08-22T01:37:09.260Z,0.00
2022-08-22T01:38:09.254Z,0.00
2022-08-22T01:39:09.240Z,0.00
2022-08-22T01:40:09.308Z,0.00
2022-08-22T01:41:10.419Z,0.00
2022-08-22T01:42:09.210Z,0.00
2022-08-22T01:43:09.209Z,0.00
2022-08-22T01:44:09.187Z,0.00
2022-08-22T01:45:09.207Z,0.00
2022-08-22T01:46:09.171Z,0.00
2022-08-22T01:47:09.163Z,0.00
2022-08-22T01:48:09.146Z,0.00
2022-08-22T01:49:09.132Z,0.00
2022-08-22T01:50:09.137Z,0.00
2022-08-22T01:51:09.112Z,0.00
2022-08-22T01:52:09.105Z,0.00
2022-08-22T01:53:09.090Z,0.00
2022-08-22T01:54:09.816Z,0.00
2022-08-22T01:55:09.113Z,0.00
2022-08-22T01:56:09.061Z,0.00
2022-08-22T01:57:09.066Z,0.00
2022-08-22T01:58:09.036Z,0.00
2022-08-22T01:59:11.099Z,0.00
2022-08-22T02:00:09.029Z,0.00
2022-08-22T02:01:09.057Z,0.00
2022-08-22T02:02:08.995Z,0.00
2022-08-22T02:03:08.988Z,0.00
2022-08-22T02:04:08.974Z,0.00
2022-08-22T02:05:08.975Z,0.00
2022-08-22T02:06:08.953Z,0.00
2022-08-22T02:07:09.939Z,0.00
2022-08-22T02:08:08.932Z,0.00
2022-08-22T02:09:08.924Z,0.00
2022-08-22T02:10:08.927Z,0.00
2022-08-22T02:11:08.899Z,0.00
2022-08-22T02:12:13.831Z,0.00
2022-08-22T02:13:09.901Z,0.00
2022-08-22T02:14:08.867Z,0.00
2022-08-22T02:15:09.378Z,0.00
2022-08-22T02:16:08.847Z,0.00
2022-08-22T02:17:08.837Z,0.00
2022-08-22T02:18:08.823Z,0.00
2022-08-22T02:19:08.833Z,0.00
2022-08-22T02:20:08.818Z,0.00
2022-08-22T02:21:08.797Z,0.00
2022-08-22T02:22:08.784Z,0.00
2022-08-22T02:23:08.782Z,0.00
2022-08-22T02:24:08.778Z,0.00
2022-08-22T02:25:09.222Z,0.00
2022-08-22T02:26:08.782Z,0.00
2022-08-22T02:27:08.733Z,0.00
2022-08-22T02:28:08.718Z,0.00
2022-08-22T02:29:08.709Z,0.00
2022-08-22T02:30:08.709Z,0.00
2022-08-22T02:31:08.704Z,0.00
2022-08-22T02:32:08.686Z,0.00
2022-08-22T02:33:08.686Z,0.00
2022-08-22T02:34:08.663Z,0.00
2022-08-22T02:35:08.687Z,0.00
2022-08-22T02:36:08.638Z,0.00
2022-08-22T02:37:08.623Z,0.00
2022-08-22T02:38:08.637Z,0.00
2022-08-22T02:39:08.607Z,0.00
2022-08-22T02:40:08.690Z,0.00
2022-08-22T02:41:08.582Z,0.00
2022-08-22T02:42:08.573Z,0.00
2022-08-22T02:43:08.564Z,0.00
2022-08-22T02:44:08.549Z,0.00
2022-08-22T02:45:08.555Z,0.00
2022-08-22T02:46:08.553Z,0.00
2022-08-22T02:47:08.531Z,0.00
2022-08-22T02:48:08.508Z,0.00
2022-08-22T02:49:08.497Z,0.00
2022-08-22T02:50:12.979Z,0.00
2022-08-22T02:51:08.494Z,0.00
2022-08-22T02:52:08.467Z,0.00
2022-08-22T02:53:08.474Z,0.00
2022-08-22T02:54:08.458Z,0.00
2022-08-22T02:55:08.481Z,0.00
2022-08-22T02:56:08.425Z,0.00
2022-08-22T02:57:14.043Z,0.00
2022-08-22T02:58:09.403Z,0.00
2022-08-22T02:59:08.394Z,0.00
2022-08-22T03:00:31.090Z,0.00
2022-08-22T03:01:09.392Z,0.00
2022-08-22T03:02:08.360Z,0.00
2022-08-22T03:03:08.362Z,0.00
2022-08-22T03:04:08.358Z,0.00
2022-08-22T03:05:08.347Z,0.00
2022-08-22T03:06:08.320Z,0.00
2022-08-22T03:07:08.307Z,0.00
2022-08-22T03:08:08.297Z,0.00
2022-08-22T03:09:08.290Z,0.00
2022-08-22T03:10:08.305Z,0.00
2022-08-22T03:11:08.270Z,0.00
2022-08-22T03:12:08.258Z,0.00
2022-08-22T03:13:08.261Z,0.00
2022-08-22T03:14:08.266Z,0.00
2022-08-22T03:15:08.259Z,0.00
2022-08-22T03:16:08.212Z,0.00
2022-08-22T03:17:08.203Z,0.00
2022-08-22T03:18:08.192Z,0.00
2022-08-22T03:19:08.183Z,0.00
2022-08-22T03:20:09.192Z,0.00
2022-08-22T03:21:08.164Z,0.00
2022-08-22T03:22:08.150Z,0.00
2022-08-22T03:23:08.141Z,0.00
2022-08-22T03:24:08.130Z,0.00
2022-08-22T03:25:08.141Z,0.00
2022-08-22T03:26:08.121Z,0.00
2022-08-22T03:27:08.120Z,0.00
2022-08-22T03:28:08.092Z,0.00
2022-08-22T03:29:08.077Z,0.00
2022-08-22T03:30:08.107Z,0.00
2022-08-22T03:31:08.066Z,0.00
2022-08-22T03:32:08.048Z,0.00
2022-08-22T03:33:08.041Z,0.00
2022-08-22T03:34:08.027Z,0.00
2022-08-22T03:35:08.032Z,0.00
2022-08-22T03:36:08.006Z,0.00
2022-08-22T03:37:07.996Z,0.00
2022-08-22T03:38:07.981Z,0.00
2022-08-22T03:39:11.227Z,0.00
2022-08-22T03:40:09.053Z,0.00
2022-08-22T03:41:07.951Z,0.00
2022-08-22T03:42:07.943Z,0.00
2022-08-22T03:43:07.933Z,0.00
2022-08-22T03:44:07.933Z,0.00
2022-08-22T03:45:07.926Z,0.00
2022-08-22T03:46:08.038Z,0.00
2022-08-22T03:47:07.895Z,0.00
2022-08-22T03:48:07.879Z,0.00
2022-08-22T03:49:07.879Z,0.00
2022-08-22T03:50:07.880Z,0.00
2022-08-22T03:51:07.848Z,0.00
2022-08-22T03:52:07.843Z,0.00
2022-08-22T03:53:12.170Z,0.00
2022-08-22T03:54:08.817Z,1.00
2022-08-22T03:55:07.834Z,1.00
2022-08-22T03:56:07.801Z,1.00
2022-08-22T03:57:07.787Z,1.00
2022-08-22T03:58:07.777Z,1.00
2022-08-22T03:59:10.241Z,0.00
2022-08-22T04:00:07.770Z,0.00
2022-08-22T04:01:07.827Z,2.00
2022-08-22T04:02:41.825Z,2.00
2022-08-22T04:03:08.722Z,4.00
2022-08-22T04:04:07.727Z,4.00
2022-08-22T04:05:07.762Z,4.00
2022-08-22T04:06:11.583Z,4.00
2022-08-22T04:07:17.749Z,7.00
2022-08-22T04:08:09.925Z,6.00
2022-08-22T04:09:07.670Z,5.00
2022-08-22T04:10:07.661Z,13.00
2022-08-22T04:11:07.638Z,15.00
2022-08-22T04:12:07.628Z,13.00
2022-08-22T04:13:07.619Z,20.00
2022-08-22T04:14:07.608Z,22.00
2022-08-22T04:15:07.644Z,23.00
2022-08-22T04:16:07.597Z,29.00
2022-08-22T04:17:07.598Z,34.00
2022-08-22T04:18:07.563Z,39.00
2022-08-22T04:19:08.040Z,39.00
2022-08-22T04:20:07.551Z,46.00
2022-08-22T04:21:07.557Z,49.00
2022-08-22T04:22:07.533Z,66.00
2022-08-22T04:23:07.517Z,65.00
2022-08-22T04:24:07.500Z,76.00
2022-08-22T04:25:08.314Z,87.00
2022-08-22T04:26:11.924Z,99.00
2022-08-22T04:27:08.509Z,112.00
2022-08-22T04:28:07.462Z,107.00
2022-08-22T04:29:07.449Z,131.00
2022-08-22T04:30:07.450Z,143.00
2022-08-22T04:31:07.454Z,165.00
2022-08-22T04:32:09.737Z,181.00
2022-08-22T04:33:07.407Z,188.00
2022-08-22T04:34:07.399Z,206.00
2022-08-22T04:35:07.387Z,222.00
2022-08-22T04:36:07.388Z,240.00
2022-08-22T04:37:07.368Z,252.00
2022-08-22T04:38:09.141Z,261.00
2022-08-22T04:39:07.364Z,284.00
2022-08-22T04:40:07.396Z,301.00
2022-08-22T04:41:07.361Z,311.00
2022-08-22T04:42:31.191Z,331.00
2022-08-22T04:43:08.306Z,350.00
2022-08-22T04:44:07.308Z,368.00
2022-08-22T04:45:07.287Z,385.00
2022-08-22T04:46:07.314Z,399.00
2022-08-22T04:47:07.262Z,420.00
2022-08-22T04:48:07.249Z,440.00
2022-08-22T04:49:07.240Z,464.00
2022-08-22T04:50:07.231Z,486.00
2022-08-22T04:51:07.234Z,503.00
2022-08-22T04:52:07.217Z,519.00
2022-08-22T04:53:07.215Z,536.00
2022-08-22T04:54:07.185Z,553.00
2022-08-22T04:55:07.174Z,572.00
2022-08-22T04:56:07.821Z,589.00
2022-08-22T04:57:07.175Z,604.00
2022-08-22T04:58:07.162Z,615.00
2022-08-22T04:59:07.137Z,624.00
2022-08-22T05:00:07.120Z,637.00
2022-08-22T05:01:07.130Z,655.00
2022-08-22T05:02:07.169Z,670.00
2022-08-22T05:03:07.095Z,688.00
2022-08-22T05:04:07.079Z,703.00
2022-08-22T05:05:13.527Z,719.00
2022-08-22T05:06:08.071Z,734.00
2022-08-22T05:07:07.047Z,754.00
2022-08-22T05:08:07.037Z,772.00
2022-08-22T05:09:07.081Z,791.00
2022-08-22T05:10:10.545Z,813.00
2022-08-22T05:11:08.122Z,840.00
2022-08-22T05:12:06.993Z,868.00
2022-08-22T05:13:06.986Z,896.00
2022-08-22T05:14:06.980Z,924.00
2022-08-22T05:15:07.233Z,948.00
2022-08-22T05:16:06.968Z,981.00
2022-08-22T05:17:06.944Z,1006.00
2022-08-22T05:18:06.932Z,1027.00
2022-08-22T05:19:06.920Z,1038.00
2022-08-22T05:20:06.910Z,1055.00
2022-08-22T05:21:07.499Z,1072.00
2022-08-22T05:22:06.939Z,1097.00
2022-08-22T05:23:06.901Z,1127.00
2022-08-22T05:24:07.884Z,1160.00
2022-08-22T05:25:06.858Z,1189.00
2022-08-22T05:26:06.844Z,1223.00
2022-08-22T05:27:06.850Z,1264.00
2022-08-22T05:28:06.826Z,1293.00
2022-08-22T05:29:06.835Z,1321.00
2022-08-22T05:30:06.809Z,1354.00
2022-08-22T05:31:07.387Z,1398.00
2022-08-22T05:32:06.794Z,1438.00
2022-08-22T05:33:06.787Z,1465.00
2022-08-22T05:34:06.765Z,1491.00
2022-08-22T05:35:06.760Z,1522.00
2022-08-22T05:36:06.738Z,1532.00
2022-08-22T05:37:08.061Z,1551.00
2022-08-22T05:38:06.719Z,1564.00
2022-08-22T05:39:06.716Z,1592.00
2022-08-22T05:40:06.743Z,1596.00
2022-08-22T05:41:06.692Z,1624.00
2022-08-22T05:42:06.694Z,1645.00
2022-08-22T05:43:06.684Z,1651.00
2022-08-22T05:44:06.684Z,1673.00
2022-08-22T05:45:06.647Z,1679.00
2022-08-22T05:46:07.635Z,1703.00
2022-08-22T05:47:06.643Z,1723.00
2022-08-22T05:48:06.613Z,1733.00
2022-08-22T05:49:06.605Z,1754.00
2022-08-22T05:50:06.594Z,1762.00
2022-08-22T05:51:06.587Z,1780.00
2022-08-22T05:52:06.585Z,1792.00
2022-08-22T05:53:06.569Z,1812.00
2022-08-22T05:54:06.553Z,1840.00
2022-08-22T05:55:06.555Z,1849.00
2022-08-22T05:56:06.550Z,1852.00
2022-08-22T05:57:08.054Z,1863.00
2022-08-22T05:58:06.510Z,1863.00
2022-08-22T05:59:08.462Z,1871.00
2022-08-22T06:00:06.491Z,1883.00
2022-08-22T06:01:06.482Z,1906.00
2022-08-22T06:02:06.595Z,1910.00
2022-08-22T06:03:06.462Z,1915.00
2022-08-22T06:04:06.447Z,1925.00
2022-08-22T06:05:09.955Z,1934.00
2022-08-22T06:06:07.426Z,1940.00
2022-08-22T06:07:06.428Z,1962.00
2022-08-22T06:08:06.408Z,1982.00
2022-08-22T06:09:06.406Z,2009.00
2022-08-22T06:10:06.407Z,2030.00
2022-08-22T06:11:06.373Z,2063.00
2022-08-22T06:12:06.411Z,2085.00
2022-08-22T06:13:06.360Z,2103.00
2022-08-22T06:14:07.338Z,2110.00
2022-08-22T06:15:12.278Z,2116.00
2022-08-22T06:16:07.319Z,2121.00
2022-08-22T06:17:06.343Z,2122.00
2022-08-22T06:18:06.916Z,2140.00
2022-08-22T06:19:19.399Z,2149.00
2022-08-22T06:20:07.427Z,2149.00
2022-08-22T06:21:06.270Z,2159.00
2022-08-22T06:22:06.270Z,2171.00
2022-08-22T06:23:06.268Z,2189.00
2022-08-22T06:24:06.246Z,2193.00
2022-08-22T06:25:06.236Z,2208.00
2022-08-22T06:26:06.258Z,2235.00
2022-08-22T06:27:07.218Z,2231.00
2022-08-22T06:28:06.232Z,2241.00
2022-08-22T06:29:06.183Z,2257.00
2022-08-22T06:30:06.185Z,2269.00
2022-08-22T06:31:06.167Z,2258.00
2022-08-22T06:32:06.176Z,2284.00
2022-08-22T06:33:06.145Z,2294.00
2022-08-22T06:34:06.908Z,2303.00
2022-08-22T06:35:06.144Z,2310.00
2022-08-22T06:36:06.123Z,2314.00
2022-08-22T06:37:06.117Z,2336.00
2022-08-22T06:38:06.095Z,2333.00
2022-08-22T06:39:06.079Z,2340.00
2022-08-22T06:40:06.152Z,2351.00
2022-08-22T06:41:06.065Z,2357.00
2022-08-22T06:42:06.083Z,2363.00
2022-08-22T06:43:06.043Z,2366.00
2022-08-22T06:44:06.029Z,2381.00
2022-08-22T06:45:06.020Z,2396.00
2022-08-22T06:46:06.008Z,2411.00
2022-08-22T06:47:06.013Z,2421.00
2022-08-22T06:48:06.343Z,2434.00
2022-08-22T06:49:05.977Z,2445.00
2022-08-22T06:50:05.981Z,2438.00
2022-08-22T06:51:05.978Z,2444.00
2022-08-22T06:52:05.979Z,2458.00
2022-08-22T06:53:05.932Z,2451.00
2022-08-22T06:54:05.930Z,2461.00
2022-08-22T06:55:05.935Z,2450.00
2022-08-22T06:56:06.433Z,2466.00
2022-08-22T06:57:05.904Z,2493.00
2022-08-22T06:58:05.883Z,2515.00
2022-08-22T06:59:05.872Z,2533.00
2022-08-22T07:00:05.861Z,2547.00
2022-08-22T07:01:12.444Z,2554.00
2022-08-22T07:02:06.941Z,2567.00
2022-08-22T07:03:05.845Z,2578.00
2022-08-22T07:04:05.838Z,2602.00
2022-08-22T07:05:05.817Z,2611.00
2022-08-22T07:06:05.808Z,2621.00
2022-08-22T07:07:05.803Z,2628.00
2022-08-22T07:08:05.782Z,2618.00
2022-08-22T07:09:06.765Z,2614.00
2022-08-22T07:10:05.757Z,2593.00
2022-08-22T07:11:05.742Z,2604.00
2022-08-22T07:12:05.746Z,2640.00
2022-08-22T07:13:05.743Z,2657.00
2022-08-22T07:14:05.709Z,2675.00
2022-08-22T07:15:05.699Z,2713.00
2022-08-22T07:16:05.691Z,2725.00
2022-08-22T07:17:05.696Z,2757.00
2022-08-22T07:18:05.668Z,2770.00
2022-08-22T07:19:05.669Z,2801.00
2022-08-22T07:20:05.650Z,2819.00
2022-08-22T07:21:05.646Z,2820.00
2022-08-22T07:22:05.641Z,2826.00
2022-08-22T07:23:05.625Z,2827.00
2022-08-22T07:24:05.604Z,2868.00
2022-08-22T07:25:05.602Z,2881.00
2022-08-22T07:26:05.586Z,2919.00
2022-08-22T07:27:05.597Z,2932.00
2022-08-22T07:28:06.965Z,2941.00
2022-08-22T07:29:10.318Z,2922.00
2022-08-22T07:30:06.538Z,2914.00
2022-08-22T07:31:05.548Z,2903.00
2022-08-22T07:32:05.559Z,2879.00
2022-08-22T07:33:26.172Z,2872.00
2022-08-22T07:34:06.498Z,2900.00
2022-08-22T07:35:05.487Z,2896.00
2022-08-22T07:36:05.476Z,2874.00
2022-08-22T07:37:05.480Z,2871.00
2022-08-22T07:38:05.456Z,2860.00
2022-08-22T07:39:05.446Z,2847.00
2022-08-22T07:40:06.534Z,2827.00
2022-08-22T07:41:05.423Z,2823.00
2022-08-22T07:42:05.427Z,2820.00
2022-08-22T07:43:05.401Z,2822.00
2022-08-22T07:44:05.411Z,2833.00
2022-08-22T07:45:05.385Z,2834.00
2022-08-22T07:46:05.374Z,2851.00
2022-08-22T07:47:05.930Z,2858.00
2022-08-22T07:48:05.354Z,2875.00
2022-08-22T07:49:09.605Z,2879.00
2022-08-22T07:50:05.331Z,2880.00
2022-08-22T07:51:05.317Z,2881.00
2022-08-22T07:52:05.320Z,2864.00
2022-08-22T07:53:05.316Z,2848.00
2022-08-22T07:54:05.289Z,2862.00
2022-08-22T07:55:05.308Z,2838.00
2022-08-22T07:56:05.267Z,2851.00
2022-08-22T07:57:05.269Z,2857.00
2022-08-22T07:58:05.264Z,2860.00
2022-08-22T07:59:09.426Z,2853.00
2022-08-22T08:00:06.221Z,2855.00
2022-08-22T08:01:05.266Z,2855.00
2022-08-22T08:02:05.221Z,2879.00
2022-08-22T08:03:05.192Z,2876.00
2022-08-22T08:04:05.209Z,2886.00
2022-08-22T08:05:05.170Z,2899.00
2022-08-22T08:06:05.163Z,2906.00
2022-08-22T08:07:05.173Z,2944.00
2022-08-22T08:08:05.141Z,2945.00
2022-08-22T08:09:05.150Z,2979.00
2022-08-22T08:10:05.132Z,3031.00
2022-08-22T08:11:05.124Z,3094.00
2022-08-22T08:12:05.130Z,3134.00
2022-08-22T08:13:05.086Z,3168.00
2022-08-22T08:14:05.079Z,3176.00
2022-08-22T08:15:05.073Z,3206.00
2022-08-22T08:16:05.061Z,3190.00
2022-08-22T08:17:05.072Z,3212.00
2022-08-22T08:18:05.048Z,3244.00
2022-08-22T08:19:05.027Z,3292.00
2022-08-22T08:20:05.035Z,3337.00
2022-08-22T08:21:05.015Z,3387.00
2022-08-22T08:22:05.084Z,3452.00
2022-08-22T08:23:05.027Z,3494.00
2022-08-22T08:24:04.997Z,3546.00
2022-08-22T08:25:04.990Z,3590.00
2022-08-22T08:26:04.953Z,3658.00
2022-08-22T08:27:04.963Z,3717.00
2022-08-22T08:28:04.936Z,3772.00
2022-08-22T08:29:04.928Z,3778.00
2022-08-22T08:30:04.913Z,3747.00
2022-08-22T08:31:04.899Z,3701.00
2022-08-22T08:32:04.891Z,3670.00
2022-08-22T08:33:25.091Z,3654.00
2022-08-22T08:34:05.867Z,3638.00
2022-08-22T08:35:04.879Z,3667.00
2022-08-22T08:36:04.857Z,3684.00
2022-08-22T08:37:04.845Z,3675.00
2022-08-22T08:38:04.857Z,3641.00
2022-08-22T08:39:04.813Z,3650.00
2022-08-22T08:40:04.894Z,3647.00
2022-08-22T08:41:04.793Z,3662.00
2022-08-22T08:42:04.824Z,3679.00
2022-08-22T08:43:04.787Z,3732.00
2022-08-22T08:44:04.761Z,3738.00
2022-08-22T08:45:04.755Z,3764.00
2022-08-22T08:46:04.744Z,3762.00
2022-08-22T08:47:04.747Z,3742.00
2022-08-22T08:48:04.749Z,3725.00
2022-08-22T08:49:06.498Z,3734.00
2022-08-22T08:50:04.724Z,3753.00
2022-08-22T08:51:04.698Z,3722.00
2022-08-22T08:52:04.679Z,3730.00
2022-08-22T08:53:04.682Z,3727.00
2022-08-22T08:54:04.656Z,3742.00
2022-08-22T08:55:19.649Z,3758.00
2022-08-22T08:56:05.649Z,3813.00
2022-08-22T08:57:04.626Z,3753.00
2022-08-22T08:58:06.847Z,3763.00
2022-08-22T08:59:10.240Z,3790.00
2022-08-22T09:00:05.590Z,3771.00
2022-08-22T09:01:04.922Z,3774.00
2022-08-22T09:02:04.615Z,3737.00
2022-08-22T09:03:06.940Z,3706.00
2022-08-22T09:04:04.553Z,3690.00
2022-08-22T09:05:04.546Z,3658.00
2022-08-22T09:06:04.531Z,3597.00
2022-08-22T09:07:04.522Z,3580.00
2022-08-22T09:08:04.523Z,3489.00
2022-08-22T09:09:04.506Z,3450.00
2022-08-22T09:10:04.489Z,3410.00
2022-08-22T09:11:04.482Z,3355.00
2022-08-22T09:12:05.468Z,3291.00
2022-08-22T09:13:12.370Z,3270.00
2022-08-22T09:14:05.444Z,3261.00
2022-08-22T09:15:04.459Z,3234.00
2022-08-22T09:16:05.624Z,3192.00
2022-08-22T09:17:04.421Z,3140.00
2022-08-22T09:18:04.418Z,3134.00
2022-08-22T09:19:04.395Z,3119.00
2022-08-22T09:20:17.685Z,3096.00
2022-08-22T09:21:05.390Z,3126.00
2022-08-22T09:22:04.363Z,3089.00
2022-08-22T09:23:04.376Z,3074.00
2022-08-22T09:24:05.342Z,3075.00
2022-08-22T09:25:06.004Z,3072.00
2022-08-22T09:26:04.973Z,3055.00
2022-08-22T09:27:08.729Z,3062.00
2022-08-22T09:28:04.351Z,3062.00
2022-08-22T09:29:04.319Z,3067.00
2022-08-22T09:31:22.199Z,3049.00
2022-08-22T09:32:05.270Z,3056.00
2022-08-22T09:33:05.269Z,3070.00
2022-08-22T09:34:05.128Z,3054.00
2022-08-22T09:35:04.228Z,3050.00
2022-08-22T09:36:05.094Z,3061.00
2022-08-22T09:37:04.211Z,3051.00
2022-08-22T09:38:04.217Z,3044.00
2022-08-22T09:39:05.862Z,3052.00
2022-08-22T09:40:04.241Z,3045.00
2022-08-22T09:40:15.633Z,3088.00
2022-08-22T09:41:04.174Z,3048.00
2022-08-22T09:42:04.159Z,3047.00
2022-08-22T09:43:04.161Z,3068.00
2022-08-22T09:44:04.131Z,3065.00
2022-08-22T09:45:04.123Z,3068.00
2022-08-22T09:46:04.109Z,3056.00
2022-08-22T09:47:04.102Z,3056.00
2022-08-22T09:48:07.813Z,3059.00
2022-08-22T09:49:05.570Z,3061.00
2022-08-22T09:50:04.127Z,3063.00
2022-08-22T09:51:20.048Z,3058.00
2022-08-22T09:52:14.298Z,3079.00
2022-08-22T09:53:05.048Z,3060.00
2022-08-22T09:54:04.235Z,3059.00
2022-08-22T09:55:04.016Z,3077.00
2022-08-22T09:56:15.621Z,3088.00
2022-08-22T09:57:04.993Z,3096.00
2022-08-22T09:58:03.998Z,3099.00
2022-08-22T09:59:03.975Z,3079.00
2022-08-22T10:00:03.964Z,3102.00
2022-08-22T10:01:04.010Z,3111.00
2022-08-22T10:02:06.042Z,3122.00
2022-08-22T10:03:03.960Z,3134.00
2022-08-22T10:04:03.935Z,3125.00
2022-08-22T10:05:04.294Z,3105.00
2022-08-22T10:06:03.916Z,3130.00
2022-08-22T10:07:06.497Z,3142.00
2022-08-22T10:08:05.201Z,3171.00
2022-08-22T10:09:03.867Z,3152.00
2022-08-22T10:10:03.856Z,3152.00
2022-08-22T10:11:03.850Z,3156.00
2022-08-22T10:12:03.834Z,3159.00
2022-08-22T10:13:03.850Z,3180.00
2022-08-22T10:14:04.813Z,3184.00
2022-08-22T10:15:03.807Z,3198.00
2022-08-22T10:16:03.807Z,3188.00
2022-08-22T10:17:03.819Z,3216.00
2022-08-22T10:18:03.868Z,3222.00
2022-08-22T10:19:03.763Z,3215.00
2022-08-22T10:20:03.750Z,3247.00
2022-08-22T10:21:03.744Z,3249.00
2022-08-22T10:22:03.730Z,3260.00
2022-08-22T10:23:03.805Z,3283.00
2022-08-22T10:24:03.709Z,3310.00
2022-08-22T10:25:03.702Z,3339.00
2022-08-22T10:26:03.697Z,3389.00
2022-08-22T10:27:03.689Z,3382.00
2022-08-22T10:28:03.713Z,3394.00
2022-08-22T10:29:03.668Z,3408.00
2022-08-22T10:30:04.496Z,3447.00
2022-08-22T10:31:03.652Z,3444.00
2022-08-22T10:32:10.756Z,3476.00
2022-08-22T10:33:05.297Z,3494.00
2022-08-22T10:34:03.610Z,3502.00
2022-08-22T10:35:03.607Z,3566.00
2022-08-22T10:36:05.012Z,3581.00
2022-08-22T10:37:03.574Z,3647.00
2022-08-22T10:38:03.659Z,3711.00
2022-08-22T10:39:10.902Z,3748.00
2022-08-22T10:40:04.613Z,3792.00
2022-08-22T10:41:03.556Z,3818.00
2022-08-22T10:42:04.526Z,3862.00
2022-08-22T10:43:03.565Z,3852.00
2022-08-22T10:44:03.949Z,3854.00
2022-08-22T10:45:03.538Z,3844.00
2022-08-22T10:46:03.623Z,3844.00
2022-08-22T10:47:03.476Z,3824.00
2022-08-22T10:48:03.480Z,3834.00
2022-08-22T10:49:08.063Z,3853.00
2022-08-22T10:50:03.460Z,3844.00
2022-08-22T10:51:04.426Z,3893.00
2022-08-22T10:52:14.804Z,4011.00
2022-08-22T10:53:04.405Z,4009.00
2022-08-22T10:54:03.396Z,4081.00
2022-08-22T10:55:05.668Z,4146.00
2022-08-22T10:56:04.378Z,4167.00
2022-08-22T10:57:03.404Z,4208.00
2022-08-22T10:58:03.359Z,4133.00
2022-08-22T10:59:03.999Z,4212.00
2022-08-22T11:00:03.339Z,4293.00
2022-08-22T11:01:38.205Z,4412.00
2022-08-22T11:02:04.374Z,4202.00
2022-08-22T11:03:03.329Z,4149.00
2022-08-22T11:04:03.295Z,4510.00
2022-08-22T11:05:03.283Z,4643.00
2022-08-22T11:06:03.280Z,4765.00
2022-08-22T11:07:03.285Z,4869.00
2022-08-22T11:08:03.270Z,4830.00
2022-08-22T11:09:03.239Z,4345.00
2022-08-22T11:10:03.246Z,4009.00
2022-08-22T11:11:03.225Z,3944.00
2022-08-22T11:12:04.458Z,3861.00
2022-08-22T11:13:03.215Z,4147.00
2022-08-22T11:14:03.193Z,4180.00
2022-08-22T11:15:03.296Z,4558.00
2022-08-22T11:16:04.147Z,4635.00
2022-08-22T11:17:11.964Z,4613.00
2022-08-22T11:18:04.151Z,4632.00
2022-08-22T11:19:15.303Z,4691.00
2022-08-22T11:20:04.132Z,4801.00
2022-08-22T11:21:03.129Z,3919.00
2022-08-22T11:22:03.772Z,3945.00
2022-08-22T11:23:03.099Z,4019.00
2022-08-22T11:24:03.094Z,4342.00
2022-08-22T11:25:04.769Z,4212.00
2022-08-22T11:26:05.205Z,4096.00
2022-08-22T11:27:03.073Z,4196.00
2022-08-22T11:28:03.050Z,4030.00
2022-08-22T11:29:13.431Z,4158.00
2022-08-22T11:30:04.101Z,5393.00
2022-08-22T11:31:03.036Z,5397.00
2022-08-22T11:32:06.029Z,5439.00
2022-08-22T11:33:03.520Z,5526.00
2022-08-22T11:34:03.003Z,5582.00
2022-08-22T11:35:02.980Z,5574.00
2022-08-22T11:36:04.624Z,5652.00
2022-08-22T11:37:02.971Z,5706.00
2022-08-22T11:38:03.946Z,5753.00
2022-08-22T11:39:02.936Z,5823.00
2022-08-22T11:40:03.018Z,5900.00
2022-08-22T11:41:02.925Z,6014.00
2022-08-22T11:42:02.946Z,6105.00
2022-08-22T11:43:03.543Z,6272.00
2022-08-22T11:44:03.503Z,6253.00
2022-08-22T11:45:02.891Z,6287.00
2022-08-22T11:46:02.868Z,6389.00
2022-08-22T11:47:02.866Z,6429.00
2022-08-22T11:48:02.850Z,6450.00
2022-08-22T11:49:02.831Z,6495.00
2022-08-22T11:50:02.828Z,6562.00
2022-08-22T11:51:02.812Z,6589.00
2022-08-22T11:52:03.845Z,6577.00
2022-08-22T11:53:04.474Z,6390.00
2022-08-22T11:54:02.797Z,5205.00
2022-08-22T11:55:02.772Z,4917.00
2022-08-22T11:56:05.576Z,6754.00
2022-08-22T11:57:02.760Z,7011.00
2022-08-22T11:58:02.760Z,7070.00
2022-08-22T11:59:02.763Z,7070.00
2022-08-22T12:00:02.744Z,7148.00
2022-08-22T12:01:02.706Z,6658.00
2022-08-22T12:02:03.960Z,6420.00
2022-08-22T12:03:02.688Z,7211.00
2022-08-22T12:04:03.504Z,6286.00
2022-08-22T12:05:02.663Z,4912.00
2022-08-22T12:06:02.661Z,5957.00
2022-08-22T12:07:02.663Z,7318.00
2022-08-22T12:08:02.648Z,7071.00
2022-08-22T12:09:03.545Z,6995.00
2022-08-22T12:10:02.721Z,7371.00
2022-08-22T12:11:02.607Z,7502.00
2022-08-22T12:12:04.677Z,7505.00
2022-08-22T12:13:02.583Z,7699.00
2022-08-22T12:14:06.511Z,6373.00
2022-08-22T12:15:02.562Z,5085.00
2022-08-22T12:16:02.555Z,7372.00
2022-08-22T12:17:02.552Z,6534.00
2022-08-22T12:18:02.532Z,5362.00
2022-08-22T12:19:02.518Z,5172.00
2022-08-22T12:20:18.654Z,5066.00
2022-08-22T12:21:03.496Z,4953.00
2022-08-22T12:22:02.519Z,4817.00
2022-08-22T12:23:02.802Z,4696.00
2022-08-22T12:24:06.138Z,4682.00
2022-08-22T12:25:03.217Z,4800.00
2022-08-22T12:26:02.456Z,4996.00
2022-08-22T12:27:02.448Z,5612.00